Yankton, SD (57078)

05:23 PM CDT on Μάιος 30, 2015 (GMT -0500)
Riverside Acres, along river | | Change Station
CLOSE
Current Station
Personal Weather Stations
Location: Yankton, SD
Elevation: 1188 ft
Nearby Weather Stations

Elev 1188 ft 42.85 °N, 97.45 °W | Updated 38 seconds ago

Clear
Αίθριος
67.6 ° F
Feels Like 67.6 ° F
N
2.7
Ανεμος Μεταβλητός Ανεμος from ΝΝΔ
Gusts 4.9 mph

Σήμερα
High -- | Low -- ° F
--% Chance of Precip.
Yesterday
High -- | Low -- ° F
Precip. -- in
5:54 AM 8:59 PM
Αμφίκυρτος, 92% visible
Ατμοσφαιρική Πίεση 30.22 in
Ορατότητα 10.0 Μίλια
Σύννεφα Αίθριος
Σημείο Δρόσου 42 ° F
Υγρασία 40%
Rainfall 0.00 in
Snow Depth Not available.
Υπεριώδης ακτινοβολία (UV) 3.0 out of 12
Pollen 7.90 out of 12
Air Quality Not available.
Flu Activity Sporadic
METAR KYKN 302215Z AUTO 33011KT 10SM CLR 18/04 A3022 RMK AO1

More Conditions Fewer Conditions

Ατμοσφαιρική Πίεση 30.22 in
Ορατότητα 10.0 Μίλια
Σύννεφα Αίθριος
Σημείο Δρόσου 42 ° F
Υγρασία 40%
Rainfall 0.00 in
Snow Depth Not available.
Υπεριώδης ακτινοβολία (UV) 3.0 out of 12
Pollen 7.90 out of 12
Air Quality Not available.
Flu Activity Sporadic
METAR KYKN 302215Z AUTO 33011KT 10SM CLR 18/04 A3022 RMK AO1

More Conditions Fewer Conditions

10-Day Weather Forecast

Almanac

Αστρονομία

May. 30, 2015 Rise Set
Actual Time
Civil Twilight
Nautical Twilight
Astronomical Twilight
Moon
Length Of Visible Light
Διάρκεια ημέρας
Tomorrow will be .
, % of the Moon is Illuminated

Today's Extremes

State Highs State Lows

Community

WunderPhotos

Upload Photos

1,825,613 photos uploaded!

WunderBlogs® & News

Nearby

Air Quality

  Air Quality AQ Index Pollutant
Not available.

Snow Depth

Station Depth Elevation

Earthquake Activity

City Distance Mag. Time & Date
Minimum magnitude displayed is 2.5.

Coastal Water Temperatures

Τοποθεσία Θερμοκρασία

Stations

Nearby Weather Stations

Station Location Temp Δείκτης Ψυχρότητας Σημείο Δρόσου Υγρασία Ανεμος Precip. Elev Ενημερώθηκε Type